ADVERTISEMENT

iOS app on App Store Android app on Google Play

2017 \ Dodgers Run - October 1, 2017

Notes Pages Download Filter By
  1 2 3 4 5 6 7 8 9 [10] 11 12 13 14 15 16 17 18 19 20 21 22 23 24 25 26 27 28 29 30 31 32 33 34 35 36 37 38 39 40




Keyword Exact  
Division

Bib Division Last Name First Name Division Place Total Time Overall City State
4253 19-29 Female Nowlin Elizabeth 77 00:32:59 901 South Pasadena CA
5500 1-13 Female Smith Elizabeth 23 00:32:59 902 Rancho Cucamonga CA
5454 50-59 Male Shin Woon 46 00:33:00 903 Hacienda Heights CA
6438 1-13 Male Guirola Cassandra 54 00:33:00 904 North Hollywood CA
1667 40-49 Male Cupo Joseph 111 00:33:00 905 Glendale CA
5965 14-18 Male Veal Jaiden 96 00:33:01 906 Garden Grove CA
1172 19-29 Male Bueno Ruben 80 00:33:03 907 Hesperia CA
3488 40-49 Female Lovato Thelma 63 00:33:03 908 Sun Valley CA
2012 50-59 Male Faber John 47 00:33:03 909 Rosamond CA
6139 14-18 Female Woodard Asia 41 00:33:05 910 Rosamond CA
2257 19-29 Female Garcia Elizabeth 78 00:33:06 911 Los Angeles CA
4567 14-18 Female Perez Samantha 42 00:33:08 912 Bakersfield CA
761 40-49 Male Arevalo Felix 112 00:33:08 913 Los Angeles CA
3226 19-29 Male Lam Johnny 81 00:33:08 914 El Monte CA
1526 19-29 Male Colasuonno Alexander 82 00:33:09 915 San Dimas CA
5829 30-39 Female Ukositkul Melissa 111 00:33:09 916 Los Angeles CA
1730 19-29 Female Debes Brittany 79 00:33:09 917 San Dimas CA
1883 30-39 Male Duncan Philip 169 00:33:09 918 La Crescenta CA
1965 30-39 Male Espejo John-paul 170 00:33:09 919 Lake Balboa CA
2355 30-39 Female Genove Melissa 112 00:33:10 920 Redondo Beach CA
2437 40-49 Female Gomez Obdulia 64 00:33:10 921 Monrovia CA
6354 14-18 Female Cruz Arisbeth 43 00:33:10 922 Los Angeles CA
6040 30-39 Female Vongchanglor Nicole 113 00:33:10 923 Los Angeles CA
5818 30-39 Male Tumaliuan Paul 171 00:33:10 924 Los Angeles CA
1303 30-39 Male Carroll Tim 172 00:33:11 925 Los Angeles CA
1503 50-59 Female Clark Lily 21 00:33:11 926 La Crescenta CA
57 40-49 Female Foong Heng Lam 65 00:33:11 927 Los Angeles CA
736 40-49 Male Arakawa Darren 113 00:33:11 928 Whittier CA
506 40-49 Male Montag Joe 114 00:33:13 929 Camarillo CA
4568 1-13 Male Perez Samuel 55 00:33:14 930 Hacienda Heights CA
4551 14-18 Male Perez Leonardo 97 00:33:14 931 Reseda CA
4542 40-49 Male Perez Joel 115 00:33:14 932 Hacienda Heights CA
2113 30-39 Male Fontela Allan 173 00:33:14 933 Chula Vista CA
5759 50-59 Male Torres Jose 48 00:33:15 934 Monrovia CA
95 40-49 Male Navarrete Marco 116 00:33:15 935 Los Angeles CA
2064 40-49 Female Finn Claire 66 00:33:15 936 Christchurch DO
1067 30-39 Female Bolanos April 114 00:33:16 937 Santa Paula CA
3721 14-18 Female Martinez Maricruz 44 00:33:16 938 Maywood CA
1480 30-39 Male Cifuentes Carlos 174 00:33:16 939 Bakersfield CA
2380 30-39 Male Giron Roberto 175 00:33:16 940 Granada Hills CA
4538 30-39 Male Perez Gabriel 176 00:33:17 941 Ontario CA
4075 30-39 Female Moreno Cynthia 115 00:33:18 942 Sylmar CA
3786 50-59 Female Mcafee Catherine 22 00:33:18 943 Glendale CA
2649 1-13 Female Guzman-hornback Gia 24 00:33:19 944 Los Angeles CA
6016 19-29 Female Villalobos Guissel 80 00:33:19 945 Salinas CA
6273 14-18 Male Armas Jose 98 00:33:20 946 Los Angeles CA
4554 30-39 Female Perez Liz 116 00:33:21 947 Ontario CA
4797 19-29 Female Ramirez Destiny Ann 81 00:33:21 948 Panorama City CA
3622 30-39 Female Marcos Joanna 117 00:33:21 949 North Hollywood CA
2030 19-29 Female Fedorova Milana 82 00:33:21 950 Los Angeles CA
4329 19-29 Female Orellana Brandy 83 00:33:21 951 North Hills CA
6606 30-39 Male Rodriguez Julio 177 00:33:22 952 Sylmar CA
5082 30-39 Female Roman Amy 118 00:33:22 953 Lawndale CA
5610 40-49 Female Szeto Jody 67 00:33:23 954 Montebello CA
4947 30-39 Female Rivera Patricia 119 00:33:23 955 Whittier CA
2209 30-39 Male Gallo Brandon 178 00:33:24 956 La Palma CA
5221 14-18 Female Salas Ivette 45 00:33:24 957 Inglewood CA
55 19-29 Female Flores Cindy 84 00:33:25 958 Los Angeles CA
4056 30-39 Female Morales-coto Rocio 120 00:33:25 959 Los Angeles CA
6378 14-18 Female Donado Valentina 46 00:33:25 960 Burbank CA
5241 40-49 Female Salazar-vega Maria 68 00:33:26 961 Pittsburg CA
6488 19-29 Male Lawrie Sanchez 83 00:33:26 962 Los Angeles CA
134 40-49 Male Gutierrez Felix 117 00:33:27 963 Los Angeles CA
6377 30-39 Female Donado Bilda 121 00:33:27 964 Burbank CA
1902 40-49 Female Dzyak Karen 69 00:33:27 965 Tarzana CA
4590 19-29 Male Phan Bryan 84 00:33:27 966 Rosemead CA
982 19-29 Female Beauvais Katherine 85 00:33:28 967 San Diego CA
1258 30-39 Female Capizzi Stefanie 122 00:33:28 968 Torrance CA
6397 19-29 Male Fonseca Danny 85 00:33:28 969 Woodland Hills CA
5461 30-39 Male Siegel Andrew 179 00:33:28 970 Redondo Beach CA
4340 40-49 Female Ornelas Patricia 70 00:33:30 971 Fontana CA
334 30-39 Female Gardner Erika 123 00:33:31 972 Riverside CA
980 19-29 Male Beauvais Jacob 86 00:33:31 973 San Diego CA
3111 40-49 Female Keller Laura 71 00:33:31 974 Culver City CA
4824 14-18 Male Rangel Ernest Manny 99 00:33:31 975 Armona CA
1393 30-39 Female Chacon Gilda 124 00:33:31 976 Irwindale CA
6677 30-39 Male Vazquez Miguel 180 00:33:32 977 Woodland Hills CA
4650 50-59 Male Porras Jr Carlos 49 00:33:33 978 Montebello CA
4162 30-39 Male Nakamura David 181 00:33:34 979 Los Angeles CA
5767 19-29 Male Torres Mario 87 00:33:34 980 Pacoima CA
1322 30-39 Female Casimiro Monica 125 00:33:34 981 La Puente CA
1221 30-39 Male Cabrera Miguel 182 00:33:34 982 Whittier CA
240 30-39 Male Belanto Ryan 183 00:33:35 983 Aliso Viejo CA
5152 30-39 Female Rubio Norma 126 00:33:36 984 Los Angeles CA
3466 30-39 Female Lopez Ria 127 00:33:37 985 Covina CA
5791 30-39 Female Trana Stephanie 128 00:33:37 986 North Hills CA
4663 30-39 Male Potts Mark 184 00:33:37 987 Pasadena CA
5499 40-49 Male Smith Dean 118 00:33:37 988 Rancho Cucamonga CA
4325 40-49 Male Oreck Joshua 119 00:33:37 989 Los Angeles CA
4720 19-29 Female Quintero Karina 86 00:33:38 990 Pacoima CA
6011 30-39 Male Villa Victor 185 00:33:39 991 South Gate CA
5192 30-39 Male Saavedra Oscar 186 00:33:39 992 Pacoima CA
1357 1-13 Female Ceballos Azalea 25 00:33:40 993 Sun Valley CA
5806 40-49 Male Truong Ken 120 00:33:40 994 Temple City CA
5977 30-39 Male Velasquez Christina 187 00:33:41 995 Manhattan Beach CA
6518 14-18 Female Mata Brianna 47 00:33:41 996 Sylmar CA
241 30-39 Female Huss Denni 129 00:33:42 997 Rancho Santa Margari CA
4448 1-13 Male Park Ryan 56 00:33:42 998 San Marino CA
6305 30-39 Female Butler Lisa 130 00:33:43 999 Los Angeles CA
2079 30-39 Male Flores Ciderio 188 00:33:43 1000 Los Angeles CA
Notes Pages Download Filter By
  1 2 3 4 5 6 7 8 9 [10] 11 12 13 14 15 16 17 18 19 20




Keyword Exact  
Division

Bib Division Last Name First Name Division Place Total Time Overall City State
5621 30-39 Female Tafoya Denise 114 01:09:49 901 West Covina CA
6552 30-39 Female Nguyen Nancy 115 01:09:50 902 Long Beach CA
139 40-49 Female Soto Martha 65 01:09:50 903 Fresno CA
1963 19-29 Female Esparza Stephanie 81 01:09:50 904 West Covina CA
5622 19-29 Male Tafoya Salvador 108 01:09:50 905 West Covina CA
382 30-39 Female Cisneros Adriana 116 01:09:50 906 Norwalk CA
1142 30-39 Female Brito Esmirna 117 01:09:51 907 Anaheim CA
6241 40-49 Male Perez Julio 131 01:09:54 908 Reseda CA
826 40-49 Female Auw Marcia 66 01:09:54 909 Los Angeles CA
4474 40-49 Female Pearson Marisa 67 01:09:54 910 North Hollywood CA
6087 50-59 Male Wendler Thomas 67 01:09:55 911 Villa Park CA
2741 40-49 Female Hernandez Diana 68 01:09:55 912 Los Angeles CA
6054 40-49 Male Walsh Travis 132 01:10:00 913 Santa Fe Springs CA
2513 40-49 Female Gonzalez Cris 69 01:10:02 914 Riverside CA
457 30-39 Female Salcedo Alma J. 118 01:10:04 915 Arleta CA
2218 40-49 Male Gamboa Jaime 133 01:10:05 916 Sylmar CA
2174 40-49 Female Fuentes -gamboa Patricia 70 01:10:05 917 Sylmar CA
5519 19-29 Female Solis Wendy 82 01:10:05 918 Los Angeles CA
3115 30-39 Female Kelsoe Erika 119 01:10:06 919 Fontana CA
3250 19-29 Male Lara Jose 109 01:10:07 920 Palmdale CA
1175 40-49 Male Burch Miguel 134 01:10:08 921 Santa Monica CA
812 19-29 Male Atondo Jonathan 110 01:10:08 922 Los Angeles CA
2406 50-59 Female Goldscher Stacy 23 01:10:09 923 North Hollywood CA
4710 40-49 Male Quintana Paul 135 01:10:09 924 Pomona CA
824 50-59 Male Austin Rick 68 01:10:10 925 Studio City CA
2303 30-39 Female Garcia Yanet 120 01:10:10 926 Pomona CA
5326 30-39 Female Sandoval Anna Marie 121 01:10:10 927 Long Beach CA
2692 30-39 Male Harrison Joey 214 01:10:12 928 San Gabriel CA
1422 30-39 Male Chau Nam 215 01:10:15 929 Pasadena CA
3899 1-13 Male Menendez Jonah 17 01:10:16 930 Long Beach CA
2557 30-39 Male Gross Joel 216 01:10:17 931 Canoga Park CA
3760 19-29 Male Mata Gerardo 111 01:10:18 932 Victorville CA
2556 30-39 Female Gross Brittney 122 01:10:18 933 Canoga Park CA
5556 30-39 Male Spielman Evan 217 01:10:20 934 Anaheim CA
3 50-59 Male Cooper Steven 69 01:10:22 935 Cornelius NC
5528 19-29 Female Soohoo Angelica 83 01:10:24 936 Los Angeles CA
3454 30-39 Male Lopez Luis 218 01:10:25 937 Los Angeles CA
1607 76-99 Female Cortez Dolores 1 01:10:25 938 Canyon Country CA
2052 50-59 Male Figueroa Angel 70 01:10:27 939 Van Nuys CA
3895 40-49 Female Mendoza Nadia 71 01:10:29 940 La Puente CA
1061 30-39 Male Boehnke Tim 219 01:10:31 941 Colton CA
2846 30-39 Male Hinojosa Angel 220 01:10:33 942 Los Angeles CA
6547 19-29 Female Moreno Genesis 84 01:10:35 943 Whittier CA
1019 30-39 Female Bergenthal Lindsay 123 01:10:35 944 Los Alamitos CA
6559 19-29 Male Ochoa Steven 112 01:10:36 945 Whittier CA
6029 30-39 Male Villegas Carlos 221 01:10:36 946 Glendale CA
4360 40-49 Female Ortega Jazm?n 72 01:10:38 947 Los Angeles CA
3133 40-49 Female Kibbe Joanna 73 01:10:38 948 Altadena CA
4464 40-49 Female Patzlaff Amy 74 01:10:38 949 Sierra Madre CA
5318 30-39 Male Sanchez Amado 222 01:10:38 950 Los Angeles CA
4314 30-39 Female Olsen Kelli 124 01:10:42 951 San Dimas CA
4300 40-49 Male Olivarez Steven 136 01:10:48 952 Indio CA
3203 19-29 Female Kung Sandra 85 01:10:53 953 North Hollywood CA
4706 30-39 Female Quinonez Brittaney 125 01:10:54 954 Tulare CA
3980 14-18 Female Molina Pamela 16 01:10:54 955 Sylmar CA
4748 30-39 Male Ramirez Christopher 223 01:10:55 956 Los Angeles CA
4434 30-39 Female Pantages Heather 126 01:10:56 957 Fontana CA
1787 30-39 Female Diaz Dulce 127 01:10:56 958 Los Angeles CA
1088 30-39 Female Borchardt Natalie 128 01:10:57 959 Glendale CA
1952 30-39 Male Escobedo Caesar 224 01:10:58 960 Glendale CA
1683 50-59 Female Dana Deborah 24 01:10:59 961 Santa Monica CA
2593 40-49 Female Gutierrez Belinda 75 01:11:00 962 Los Angeles CA
16 50-59 Female Aguilar Guadalupe 25 01:11:00 963 Los Angeles CA
4759 30-39 Female Ramirez Eva 129 01:11:01 964 March Arb CA
6528 14-18 Male Melendez Matthew 47 01:11:02 965 Norco CA
2768 50-59 Male Hernandez Jesus 71 01:11:03 966 Los Angeles CA
74 40-49 Male Hon Chris 137 01:11:03 967 Frazier Park CA
5469 19-29 Female Silva Mercedes 86 01:11:03 968 Delano CA
4841 40-49 Female Recendez Roselia 76 01:11:08 969 Los Angeles CA
1984 40-49 Female Esterline Maria 77 01:11:08 970 Burbank CA
1446 40-49 Female Chavira Adriana 78 01:11:10 971 North Hollywood CA
3860 30-39 Male Mendez Bryan 225 01:11:10 972 Arcadia CA
2835 14-18 Male Hillers Colby 48 01:11:15 973 Victorville CA
1907 14-18 Male Ebright Robbie 49 01:11:16 974 Victorville CA
1909 30-39 Female Echeverria Olivia 130 01:11:16 975 Los Angeles CA
1458 14-18 Male Cheung Calvin 50 01:11:16 976 Victorville CA
2873 30-39 Male Hong Seung Hyun 226 01:11:16 977 Cerritos CA
6396 19-29 Male Flores Pedro 113 01:11:17 978 Long Beach CA
5506 30-39 Female Smith Meliza 131 01:11:17 979 Corona CA
48 30-39 Female De La Torre Rebecca 132 01:11:22 980 Moreno Valley CA
3592 40-49 Male Maldonado Rene 138 01:11:23 981 Los Angeles CA
3150 40-49 Female Kinsey Amy 79 01:11:24 982 Moorpark CA
2911 40-49 Female Hussein Amina 80 01:11:24 983 Pasadena CA
5930 50-59 Male Vargas Pete 72 01:11:31 984 Brea CA
2718 40-49 Male Herbold Ricky 139 01:11:32 985 Victorville CA
6160 19-29 Female Yanez Angelica 87 01:11:32 986 Pacoima CA
2328 30-39 Female Garr Alicia 133 01:11:32 987 Covina CA
1003 30-39 Male Beltran Diogo 227 01:11:34 988 North Hollywood CA
725 60-69 Male Anton Dave 19 01:11:36 989 Porter Ranch CA
2134 40-49 Female Franco Flor 81 01:11:37 990 Bakersfield CA
3926 30-39 Male Meza Erik 228 01:11:41 991 Compton CA
1562 19-29 Female Cook Tori 88 01:11:42 992 Altadena CA
901 30-39 Female Bandol Charrievi 134 01:11:43 993 Rosemead CA
569 30-39 Female Aguilar Andrea 135 01:11:43 994 Woodland CA
5596 30-39 Male Suarez Alejandro 229 01:11:45 995 Simi Valley CA
2909 30-39 Male Hurtado Bryan 230 01:11:45 996 Simi Valley CA
2410 40-49 Male Golovko Kenneth 140 01:11:47 997 Orange CA
2521 19-29 Male Gordon Matthew 114 01:11:47 998 Sherman Oaks CA
3275 30-39 Male Lazalde Tomas 231 01:11:47 999 Riverside CA
3934 1-13 Male Miguel Brendan 18 01:11:49 1000 Los Angeles CA